sensor_id;sensor_type;location;lat;lon;timestamp;P1;durP1;ratioP1;P2;durP2;ratioP2
20411;SDS011;10365;52.578;8.138;2024-02-23T00:02:08;0.90;;;0.30;;
20411;SDS011;10365;52.578;8.138;2024-02-23T00:04:33;0.52;;;0.30;;
20411;SDS011;10365;52.578;8.138;2024-02-23T00:06:59;1.73;;;0.20;;
20411;SDS011;10365;52.578;8.138;2024-02-23T00:09:24;1.77;;;0.20;;
20411;SDS011;10365;52.578;8.138;2024-02-23T00:11:52;2.15;;;0.10;;
20411;SDS011;10365;52.578;8.138;2024-02-23T00:14:18;0.30;;;0.10;;
20411;SDS011;10365;52.578;8.138;2024-02-23T00:16:44;1.10;;;0.28;;
20411;SDS011;10365;52.578;8.138;2024-02-23T00:19:13;1.15;;;0.20;;
20411;SDS011;10365;52.578;8.138;2024-02-23T00:21:42;0.73;;;0.20;;
20411;SDS011;10365;52.578;8.138;2024-02-23T00:24:07;0.93;;;0.30;;
20411;SDS011;10365;52.578;8.138;2024-02-23T00:26:36;1.08;;;0.40;;
20411;SDS011;10365;52.578;8.138;2024-02-23T00:29:02;0.68;;;0.30;;
20411;SDS011;10365;52.578;8.138;2024-02-23T00:31:27;1.45;;;0.40;;
20411;SDS011;10365;52.578;8.138;2024-02-23T00:33:59;0.70;;;0.47;;
20411;SDS011;10365;52.578;8.138;2024-02-23T00:36:28;0.43;;;0.32;;
20411;SDS011;10365;52.578;8.138;2024-02-23T00:38:53;0.73;;;0.38;;
20411;SDS011;10365;52.578;8.138;2024-02-23T00:41:19;0.80;;;0.40;;
20411;SDS011;10365;52.578;8.138;2024-02-23T00:43:47;0.40;;;0.30;;
20411;SDS011;10365;52.578;8.138;2024-02-23T00:46:17;0.50;;;0.40;;
20411;SDS011;10365;52.578;8.138;2024-02-23T00:48:48;2.92;;;0.85;;
20411;SDS011;10365;52.578;8.138;2024-02-23T00:51:17;0.30;;;0.30;;
20411;SDS011;10365;52.578;8.138;2024-02-23T00:53:44;0.70;;;0.40;;
20411;SDS011;10365;52.578;8.138;2024-02-23T00:56:10;0.20;;;0.20;;
20411;SDS011;10365;52.578;8.138;2024-02-23T00:58:38;0.90;;;0.30;;
20411;SDS011;10365;52.578;8.138;2024-02-23T01:01:09;0.50;;;0.30;;
20411;SDS011;10365;52.578;8.138;2024-02-23T01:03:37;0.52;;;0.30;;
20411;SDS011;10365;52.578;8.138;2024-02-23T01:06:05;0.15;;;0.15;;
20411;SDS011;10365;52.578;8.138;2024-02-23T01:08:31;0.10;;;0.10;;
20411;SDS011;10365;52.578;8.138;2024-02-23T01:11:04;0.30;;;0.10;;
20411;SDS011;10365;52.578;8.138;2024-02-23T01:13:32;0.50;;;0.10;;
20411;SDS011;10365;52.578;8.138;2024-02-23T01:16:04;0.10;;;0.10;;
20411;SDS011;10365;52.578;8.138;2024-02-23T01:18:32;0.10;;;0.10;;
20411;SDS011;10365;52.578;8.138;2024-02-23T01:21:00;0.13;;;0.10;;
20411;SDS011;10365;52.578;8.138;2024-02-23T01:23:29;0.20;;;0.05;;
20411;SDS011;10365;52.578;8.138;2024-02-23T01:25:54;0.10;;;0.03;;
20411;SDS011;10365;52.578;8.138;2024-02-23T01:28:20;0.00;;;0.00;;
20411;SDS011;10365;52.578;8.138;2024-02-23T01:30:48;0.30;;;0.10;;
20411;SDS011;10365;52.578;8.138;2024-02-23T01:33:14;0.13;;;0.10;;
20411;SDS011;10365;52.578;8.138;2024-02-23T01:35:39;3.13;;;0.30;;
20411;SDS011;10365;52.578;8.138;2024-02-23T01:38:07;0.22;;;0.20;;
20411;SDS011;10365;52.578;8.138;2024-02-23T01:40:33;0.55;;;0.30;;
20411;SDS011;10365;52.578;8.138;2024-02-23T01:43:02;0.32;;;0.30;;
20411;SDS011;10365;52.578;8.138;2024-02-23T01:45:29;0.38;;;0.30;;
20411;SDS011;10365;52.578;8.138;2024-02-23T01:47:58;0.73;;;0.70;;
20411;SDS011;10365;52.578;8.138;2024-02-23T01:50:24;0.80;;;0.60;;
20411;SDS011;10365;52.578;8.138;2024-02-23T01:52:49;0.88;;;0.50;;
20411;SDS011;10365;52.578;8.138;2024-02-23T01:55:18;2.50;;;0.50;;
20411;SDS011;10365;52.578;8.138;2024-02-23T01:57:46;1.30;;;0.50;;
20411;SDS011;10365;52.578;8.138;2024-02-23T02:00:19;4.20;;;0.70;;
20411;SDS011;10365;52.578;8.138;2024-02-23T02:02:52;5.50;;;0.90;;
20411;SDS011;10365;52.578;8.138;2024-02-23T02:05:18;0.90;;;0.63;;
20411;SDS011;10365;52.578;8.138;2024-02-23T02:07:46;2.15;;;0.60;;
20411;SDS011;10365;52.578;8.138;2024-02-23T02:10:16;1.02;;;0.68;;
20411;SDS011;10365;52.578;8.138;2024-02-23T02:12:50;3.53;;;0.80;;
20411;SDS011;10365;52.578;8.138;2024-02-23T02:15:16;2.20;;;0.80;;
20411;SDS011;10365;52.578;8.138;2024-02-23T02:17:42;1.10;;;0.70;;
20411;SDS011;10365;52.578;8.138;2024-02-23T02:20:11;4.45;;;1.00;;
20411;SDS011;10365;52.578;8.138;2024-02-23T02:22:36;3.17;;;1.00;;
20411;SDS011;10365;52.578;8.138;2024-02-23T02:25:05;2.25;;;1.20;;
20411;SDS011;10365;52.578;8.138;2024-02-23T02:27:30;5.32;;;1.48;;
20411;SDS011;10365;52.578;8.138;2024-02-23T02:29:56;4.07;;;1.55;;
20411;SDS011;10365;52.578;8.138;2024-02-23T02:32:43;6.88;;;1.85;;
20411;SDS011;10365;52.578;8.138;2024-02-23T02:35:11;9.02;;;1.90;;
20411;SDS011;10365;52.578;8.138;2024-02-23T02:37:42;13.35;;;2.15;;
20411;SDS011;10365;52.578;8.138;2024-02-23T02:40:11;5.30;;;1.80;;
20411;SDS011;10365;52.578;8.138;2024-02-23T02:42:39;5.72;;;1.80;;
20411;SDS011;10365;52.578;8.138;2024-02-23T02:45:05;4.05;;;1.70;;
20411;SDS011;10365;52.578;8.138;2024-02-23T02:47:31;3.85;;;1.98;;
20411;SDS011;10365;52.578;8.138;2024-02-23T02:49:59;5.10;;;2.05;;
20411;SDS011;10365;52.578;8.138;2024-02-23T02:52:25;12.05;;;2.13;;
20411;SDS011;10365;52.578;8.138;2024-02-23T02:54:53;7.68;;;2.17;;
20411;SDS011;10365;52.578;8.138;2024-02-23T02:57:23;5.03;;;2.08;;
20411;SDS011;10365;52.578;8.138;2024-02-23T02:59:49;7.32;;;2.45;;
20411;SDS011;10365;52.578;8.138;2024-02-23T03:02:15;4.90;;;2.13;;
20411;SDS011;10365;52.578;8.138;2024-02-23T03:04:47;3.40;;;2.30;;
20411;SDS011;10365;52.578;8.138;2024-02-23T03:07:13;4.95;;;1.73;;
20411;SDS011;10365;52.578;8.138;2024-02-23T03:09:38;5.65;;;1.92;;
20411;SDS011;10365;52.578;8.138;2024-02-23T03:12:10;2.70;;;1.77;;
20411;SDS011;10365;52.578;8.138;2024-02-23T03:14:36;4.53;;;2.08;;
20411;SDS011;10365;52.578;8.138;2024-02-23T03:17:06;3.05;;;1.73;;
20411;SDS011;10365;52.578;8.138;2024-02-23T03:19:35;3.50;;;1.38;;
20411;SDS011;10365;52.578;8.138;2024-02-23T03:22:04;4.60;;;1.92;;
20411;SDS011;10365;52.578;8.138;2024-02-23T03:24:32;2.72;;;1.70;;
20411;SDS011;10365;52.578;8.138;2024-02-23T03:26:58;3.83;;;1.80;;
20411;SDS011;10365;52.578;8.138;2024-02-23T03:29:23;3.35;;;1.92;;
20411;SDS011;10365;52.578;8.138;2024-02-23T03:31:50;6.38;;;2.25;;
20411;SDS011;10365;52.578;8.138;2024-02-23T03:34:21;2.95;;;1.70;;
20411;SDS011;10365;52.578;8.138;2024-02-23T03:36:58;4.40;;;2.17;;
20411;SDS011;10365;52.578;8.138;2024-02-23T03:39:27;4.47;;;2.03;;
20411;SDS011;10365;52.578;8.138;2024-02-23T03:41:53;4.65;;;1.75;;
20411;SDS011;10365;52.578;8.138;2024-02-23T03:44:23;9.68;;;2.35;;
20411;SDS011;10365;52.578;8.138;2024-02-23T03:46:49;4.00;;;1.67;;
20411;SDS011;10365;52.578;8.138;2024-02-23T03:49:20;6.55;;;1.90;;
20411;SDS011;10365;52.578;8.138;2024-02-23T03:51:46;1.88;;;1.15;;
20411;SDS011;10365;52.578;8.138;2024-02-23T03:54:11;3.08;;;1.63;;
20411;SDS011;10365;52.578;8.138;2024-02-23T03:56:40;5.13;;;1.42;;
20411;SDS011;10365;52.578;8.138;2024-02-23T03:59:12;7.13;;;2.35;;
20411;SDS011;10365;52.578;8.138;2024-02-23T04:01:37;5.40;;;2.53;;
20411;SDS011;10365;52.578;8.138;2024-02-23T04:04:04;10.10;;;3.10;;
20411;SDS011;10365;52.578;8.138;2024-02-23T04:06:42;5.80;;;3.08;;
20411;SDS011;10365;52.578;8.138;2024-02-23T04:09:07;10.90;;;3.22;;
20411;SDS011;10365;52.578;8.138;2024-02-23T04:11:33;8.43;;;3.20;;
20411;SDS011;10365;52.578;8.138;2024-02-23T04:14:01;10.20;;;3.80;;
20411;SDS011;10365;52.578;8.138;2024-02-23T04:16:27;5.55;;;3.65;;
20411;SDS011;10365;52.578;8.138;2024-02-23T04:18:55;15.65;;;4.03;;
20411;SDS011;10365;52.578;8.138;2024-02-23T04:21:24;7.13;;;3.40;;
20411;SDS011;10365;52.578;8.138;2024-02-23T04:23:50;5.43;;;3.33;;
20411;SDS011;10365;52.578;8.138;2024-02-23T04:26:15;11.00;;;3.58;;
20411;SDS011;10365;52.578;8.138;2024-02-23T04:28:44;11.68;;;3.40;;
20411;SDS011;10365;52.578;8.138;2024-02-23T04:31:09;6.70;;;3.42;;
20411;SDS011;10365;52.578;8.138;2024-02-23T04:33:35;6.93;;;3.00;;
20411;SDS011;10365;52.578;8.138;2024-02-23T04:36:02;11.18;;;3.33;;
20411;SDS011;10365;52.578;8.138;2024-02-23T04:38:38;10.95;;;3.35;;
20411;SDS011;10365;52.578;8.138;2024-02-23T04:41:03;11.02;;;2.92;;
20411;SDS011;10365;52.578;8.138;2024-02-23T04:43:30;4.28;;;2.38;;
20411;SDS011;10365;52.578;8.138;2024-02-23T04:45:56;4.35;;;2.33;;
20411;SDS011;10365;52.578;8.138;2024-02-23T04:48:23;10.77;;;2.45;;
20411;SDS011;10365;52.578;8.138;2024-02-23T04:50:49;7.70;;;1.85;;
20411;SDS011;10365;52.578;8.138;2024-02-23T04:53:15;7.40;;;2.78;;
20411;SDS011;10365;52.578;8.138;2024-02-23T04:55:43;8.25;;;1.88;;
20411;SDS011;10365;52.578;8.138;2024-02-23T04:58:11;8.98;;;1.90;;
20411;SDS011;10365;52.578;8.138;2024-02-23T05:00:37;4.20;;;1.50;;
20411;SDS011;10365;52.578;8.138;2024-02-23T05:03:05;6.00;;;1.65;;
20411;SDS011;10365;52.578;8.138;2024-02-23T05:05:35;9.30;;;1.92;;
20411;SDS011;10365;52.578;8.138;2024-02-23T05:08:08;8.82;;;1.63;;
20411;SDS011;10365;52.578;8.138;2024-02-23T05:10:36;10.85;;;1.60;;
20411;SDS011;10365;52.578;8.138;2024-02-23T05:13:02;5.88;;;1.30;;
20411;SDS011;10365;52.578;8.138;2024-02-23T05:15:33;6.93;;;1.63;;
20411;SDS011;10365;52.578;8.138;2024-02-23T05:17:58;5.13;;;1.23;;
20411;SDS011;10365;52.578;8.138;2024-02-23T05:20:27;6.35;;;1.48;;
20411;SDS011;10365;52.578;8.138;2024-02-23T05:22:58;4.55;;;1.40;;
20411;SDS011;10365;52.578;8.138;2024-02-23T05:25:23;5.85;;;1.33;;
20411;SDS011;10365;52.578;8.138;2024-02-23T05:27:54;7.90;;;1.58;;
20411;SDS011;10365;52.578;8.138;2024-02-23T05:30:19;11.82;;;1.50;;
20411;SDS011;10365;52.578;8.138;2024-02-23T05:32:45;5.68;;;1.58;;
20411;SDS011;10365;52.578;8.138;2024-02-23T05:35:12;9.27;;;1.30;;
20411;SDS011;10365;52.578;8.138;2024-02-23T05:37:41;5.80;;;1.40;;
20411;SDS011;10365;52.578;8.138;2024-02-23T05:40:07;6.65;;;1.50;;
20411;SDS011;10365;52.578;8.138;2024-02-23T05:42:38;3.28;;;1.17;;
20411;SDS011;10365;52.578;8.138;2024-02-23T05:45:04;6.15;;;1.50;;
20411;SDS011;10365;52.578;8.138;2024-02-23T05:47:32;9.20;;;1.42;;
20411;SDS011;10365;52.578;8.138;2024-02-23T05:49:58;5.20;;;1.58;;
20411;SDS011;10365;52.578;8.138;2024-02-23T05:52:29;7.18;;;1.13;;
20411;SDS011;10365;52.578;8.138;2024-02-23T05:54:55;2.78;;;1.40;;
20411;SDS011;10365;52.578;8.138;2024-02-23T05:57:24;3.10;;;1.30;;
20411;SDS011;10365;52.578;8.138;2024-02-23T06:00:01;5.50;;;1.13;;
20411;SDS011;10365;52.578;8.138;2024-02-23T06:02:45;4.47;;;0.85;;
20411;SDS011;10365;52.578;8.138;2024-02-23T06:05:14;6.85;;;1.20;;
20411;SDS011;10365;52.578;8.138;2024-02-23T06:07:41;6.35;;;1.63;;
20411;SDS011;10365;52.578;8.138;2024-02-23T06:10:09;5.03;;;1.13;;
20411;SDS011;10365;52.578;8.138;2024-02-23T06:13:26;6.50;;;1.30;;
20411;SDS011;10365;52.578;8.138;2024-02-23T06:15:54;3.83;;;1.25;;
20411;SDS011;10365;52.578;8.138;2024-02-23T06:18:20;2.75;;;1.13;;
20411;SDS011;10365;52.578;8.138;2024-02-23T06:20:45;4.40;;;1.13;;
20411;SDS011;10365;52.578;8.138;2024-02-23T06:23:11;7.13;;;1.55;;
20411;SDS011;10365;52.578;8.138;2024-02-23T06:25:39;3.45;;;1.20;;
20411;SDS011;10365;52.578;8.138;2024-02-23T06:28:05;4.97;;;1.10;;
20411;SDS011;10365;52.578;8.138;2024-02-23T06:30:31;6.75;;;1.50;;
20411;SDS011;10365;52.578;8.138;2024-02-23T06:32:57;4.32;;;1.40;;
20411;SDS011;10365;52.578;8.138;2024-02-23T06:35:23;7.10;;;1.35;;
20411;SDS011;10365;52.578;8.138;2024-02-23T06:38:08;4.30;;;1.05;;
20411;SDS011;10365;52.578;8.138;2024-02-23T06:40:35;10.38;;;1.27;;
20411;SDS011;10365;52.578;8.138;2024-02-23T06:43:09;4.28;;;1.02;;
20411;SDS011;10365;52.578;8.138;2024-02-23T06:45:38;5.35;;;1.10;;
20411;SDS011;10365;52.578;8.138;2024-02-23T06:48:03;4.63;;;0.90;;
20411;SDS011;10365;52.578;8.138;2024-02-23T06:50:32;5.55;;;0.88;;
20411;SDS011;10365;52.578;8.138;2024-02-23T06:53:01;6.18;;;1.17;;
20411;SDS011;10365;52.578;8.138;2024-02-23T06:55:27;2.70;;;0.68;;
20411;SDS011;10365;52.578;8.138;2024-02-23T06:57:56;9.68;;;1.15;;
20411;SDS011;10365;52.578;8.138;2024-02-23T07:00:22;6.28;;;1.23;;
20411;SDS011;10365;52.578;8.138;2024-02-23T07:02:47;6.43;;;0.88;;
20411;SDS011;10365;52.578;8.138;2024-02-23T07:05:13;5.65;;;1.30;;
20411;SDS011;10365;52.578;8.138;2024-02-23T07:07:42;5.53;;;1.08;;
20411;SDS011;10365;52.578;8.138;2024-02-23T07:10:07;6.65;;;0.98;;
20411;SDS011;10365;52.578;8.138;2024-02-23T07:12:33;9.32;;;1.13;;
20411;SDS011;10365;52.578;8.138;2024-02-23T07:15:02;1.85;;;0.77;;
20411;SDS011;10365;52.578;8.138;2024-02-23T07:17:27;7.40;;;1.20;;
20411;SDS011;10365;52.578;8.138;2024-02-23T07:19:55;8.40;;;0.98;;
20411;SDS011;10365;52.578;8.138;2024-02-23T07:22:31;8.75;;;0.98;;
20411;SDS011;10365;52.578;8.138;2024-02-23T07:25:00;11.20;;;1.35;;
20411;SDS011;10365;52.578;8.138;2024-02-23T07:27:29;5.40;;;0.88;;
20411;SDS011;10365;52.578;8.138;2024-02-23T07:29:54;8.02;;;0.90;;
20411;SDS011;10365;52.578;8.138;2024-02-23T07:32:20;6.68;;;0.88;;
20411;SDS011;10365;52.578;8.138;2024-02-23T07:34:46;6.30;;;0.88;;
20411;SDS011;10365;52.578;8.138;2024-02-23T07:37:11;11.57;;;1.30;;
20411;SDS011;10365;52.578;8.138;2024-02-23T07:39:37;8.23;;;1.05;;
20411;SDS011;10365;52.578;8.138;2024-02-23T07:42:03;6.38;;;1.52;;
20411;SDS011;10365;52.578;8.138;2024-02-23T07:44:31;9.65;;;0.98;;
20411;SDS011;10365;52.578;8.138;2024-02-23T07:46:59;4.47;;;1.48;;
20411;SDS011;10365;52.578;8.138;2024-02-23T07:49:25;3.78;;;0.70;;
20411;SDS011;10365;52.578;8.138;2024-02-23T07:51:52;2.85;;;1.00;;
20411;SDS011;10365;52.578;8.138;2024-02-23T07:54:18;13.38;;;1.48;;
20411;SDS011;10365;52.578;8.138;2024-02-23T07:56:43;3.50;;;0.98;;
20411;SDS011;10365;52.578;8.138;2024-02-23T07:59:09;4.60;;;1.02;;
20411;SDS011;10365;52.578;8.138;2024-02-23T08:01:37;2.38;;;0.95;;
20411;SDS011;10365;52.578;8.138;2024-02-23T08:04:05;3.88;;;1.20;;
20411;SDS011;10365;52.578;8.138;2024-02-23T08:06:34;2.10;;;0.75;;
20411;SDS011;10365;52.578;8.138;2024-02-23T08:09:00;7.28;;;1.00;;
20411;SDS011;10365;52.578;8.138;2024-02-23T08:11:25;3.55;;;1.27;;
20411;SDS011;10365;52.578;8.138;2024-02-23T08:13:53;9.55;;;1.10;;
20411;SDS011;10365;52.578;8.138;2024-02-23T08:16:19;4.03;;;0.80;;
20411;SDS011;10365;52.578;8.138;2024-02-23T08:18:44;8.00;;;0.90;;
20411;SDS011;10365;52.578;8.138;2024-02-23T08:21:12;5.50;;;1.30;;
20411;SDS011;10365;52.578;8.138;2024-02-23T08:23:38;4.47;;;0.98;;
20411;SDS011;10365;52.578;8.138;2024-02-23T08:26:03;11.70;;;0.73;;
20411;SDS011;10365;52.578;8.138;2024-02-23T08:28:32;3.65;;;0.70;;
20411;SDS011;10365;52.578;8.138;2024-02-23T08:31:00;5.07;;;0.90;;
20411;SDS011;10365;52.578;8.138;2024-02-23T08:33:26;5.90;;;0.60;;
20411;SDS011;10365;52.578;8.138;2024-02-23T08:35:52;5.40;;;0.70;;
20411;SDS011;10365;52.578;8.138;2024-02-23T08:38:28;5.75;;;0.70;;
20411;SDS011;10365;52.578;8.138;2024-02-23T08:41:02;4.70;;;1.02;;
20411;SDS011;10365;52.578;8.138;2024-02-23T08:43:27;5.70;;;0.68;;
20411;SDS011;10365;52.578;8.138;2024-02-23T08:45:55;8.00;;;1.00;;
20411;SDS011;10365;52.578;8.138;2024-02-23T08:48:21;9.82;;;1.15;;
20411;SDS011;10365;52.578;8.138;2024-02-23T08:50:49;6.38;;;1.08;;
20411;SDS011;10365;52.578;8.138;2024-02-23T08:53:16;3.40;;;0.90;;
20411;SDS011;10365;52.578;8.138;2024-02-23T08:55:42;9.80;;;1.42;;
20411;SDS011;10365;52.578;8.138;2024-02-23T08:58:11;6.15;;;0.85;;
20411;SDS011;10365;52.578;8.138;2024-02-23T09:00:36;8.98;;;1.10;;
20411;SDS011;10365;52.578;8.138;2024-02-23T09:03:02;6.53;;;0.60;;
20411;SDS011;10365;52.578;8.138;2024-02-23T09:05:28;4.45;;;0.73;;
20411;SDS011;10365;52.578;8.138;2024-02-23T09:07:53;9.25;;;1.00;;
20411;SDS011;10365;52.578;8.138;2024-02-23T09:10:21;2.70;;;0.63;;
20411;SDS011;10365;52.578;8.138;2024-02-23T09:12:46;8.10;;;1.13;;
20411;SDS011;10365;52.578;8.138;2024-02-23T09:15:12;6.10;;;0.80;;
20411;SDS011;10365;52.578;8.138;2024-02-23T09:17:40;5.32;;;1.30;;
20411;SDS011;10365;52.578;8.138;2024-02-23T09:20:06;5.13;;;0.75;;
20411;SDS011;10365;52.578;8.138;2024-02-23T09:22:32;3.95;;;0.80;;
20411;SDS011;10365;52.578;8.138;2024-02-23T09:24:58;6.30;;;0.85;;
20411;SDS011;10365;52.578;8.138;2024-02-23T09:27:24;4.45;;;0.70;;
20411;SDS011;10365;52.578;8.138;2024-02-23T09:29:52;8.30;;;1.27;;
20411;SDS011;10365;52.578;8.138;2024-02-23T09:32:19;5.28;;;1.55;;
20411;SDS011;10365;52.578;8.138;2024-02-23T09:34:54;5.97;;;2.05;;
20411;SDS011;10365;52.578;8.138;2024-02-23T09:37:19;6.85;;;1.10;;
20411;SDS011;10365;52.578;8.138;2024-02-23T09:39:48;6.32;;;1.45;;
20411;SDS011;10365;52.578;8.138;2024-02-23T09:42:16;5.78;;;0.95;;
20411;SDS011;10365;52.578;8.138;2024-02-23T09:44:43;6.75;;;0.68;;
20411;SDS011;10365;52.578;8.138;2024-02-23T09:47:13;4.00;;;0.77;;
20411;SDS011;10365;52.578;8.138;2024-02-23T09:49:40;5.95;;;0.93;;
20411;SDS011;10365;52.578;8.138;2024-02-23T09:52:09;4.40;;;0.98;;
20411;SDS011;10365;52.578;8.138;2024-02-23T09:54:36;6.78;;;1.35;;
20411;SDS011;10365;52.578;8.138;2024-02-23T09:57:02;5.30;;;1.13;;
20411;SDS011;10365;52.578;8.138;2024-02-23T09:59:34;2.25;;;0.80;;
20411;SDS011;10365;52.578;8.138;2024-02-23T10:01:59;4.65;;;0.93;;
20411;SDS011;10365;52.578;8.138;2024-02-23T10:04:28;5.18;;;0.70;;
20411;SDS011;10365;52.578;8.138;2024-02-23T10:06:57;8.68;;;0.75;;
20411;SDS011;10365;52.578;8.138;2024-02-23T10:09:22;3.33;;;0.68;;
20411;SDS011;10365;52.578;8.138;2024-02-23T10:11:56;6.10;;;0.90;;
20411;SDS011;10365;52.578;8.138;2024-02-23T10:14:22;2.15;;;0.60;;
20411;SDS011;10365;52.578;8.138;2024-02-23T10:16:48;5.22;;;0.70;;
20411;SDS011;10365;52.578;8.138;2024-02-23T10:19:19;7.82;;;0.90;;
20411;SDS011;10365;52.578;8.138;2024-02-23T10:21:47;4.07;;;0.82;;
20411;SDS011;10365;52.578;8.138;2024-02-23T10:24:18;2.95;;;0.60;;
20411;SDS011;10365;52.578;8.138;2024-02-23T10:26:43;5.00;;;0.80;;
20411;SDS011;10365;52.578;8.138;2024-02-23T10:29:09;4.30;;;0.68;;
20411;SDS011;10365;52.578;8.138;2024-02-23T10:31:40;6.25;;;0.77;;
20411;SDS011;10365;52.578;8.138;2024-02-23T10:34:08;3.53;;;0.95;;
20411;SDS011;10365;52.578;8.138;2024-02-23T10:36:40;3.90;;;1.23;;
20411;SDS011;10365;52.578;8.138;2024-02-23T10:39:05;9.20;;;3.08;;
20411;SDS011;10365;52.578;8.138;2024-02-23T10:41:34;6.40;;;1.40;;
20411;SDS011;10365;52.578;8.138;2024-02-23T10:44:05;3.17;;;0.73;;
20411;SDS011;10365;52.578;8.138;2024-02-23T10:46:31;2.92;;;0.73;;
20411;SDS011;10365;52.578;8.138;2024-02-23T10:48:58;3.15;;;0.60;;
20411;SDS011;10365;52.578;8.138;2024-02-23T10:51:24;4.43;;;1.00;;
20411;SDS011;10365;52.578;8.138;2024-02-23T10:53:50;1.73;;;0.70;;
20411;SDS011;10365;52.578;8.138;2024-02-23T10:56:17;5.03;;;1.00;;
20411;SDS011;10365;52.578;8.138;2024-02-23T10:58:43;3.88;;;1.88;;
20411;SDS011;10365;52.578;8.138;2024-02-23T11:01:14;6.65;;;2.35;;
20411;SDS011;10365;52.578;8.138;2024-02-23T11:03:43;3.28;;;1.38;;
20411;SDS011;10365;52.578;8.138;2024-02-23T11:06:15;9.13;;;5.25;;
20411;SDS011;10365;52.578;8.138;2024-02-23T11:08:46;3.78;;;1.40;;
20411;SDS011;10365;52.578;8.138;2024-02-23T11:11:12;8.85;;;1.30;;
20411;SDS011;10365;52.578;8.138;2024-02-23T11:13:42;7.40;;;0.90;;
20411;SDS011;10365;52.578;8.138;2024-02-23T11:16:08;5.10;;;1.00;;
20411;SDS011;10365;52.578;8.138;2024-02-23T11:18:38;6.97;;;2.00;;
20411;SDS011;10365;52.578;8.138;2024-02-23T11:21:04;2.90;;;0.80;;
20411;SDS011;10365;52.578;8.138;2024-02-23T11:23:47;3.58;;;0.80;;
20411;SDS011;10365;52.578;8.138;2024-02-23T11:26:14;4.00;;;0.80;;
20411;SDS011;10365;52.578;8.138;2024-02-23T11:31:19;2.90;;;0.70;;
20411;SDS011;10365;52.578;8.138;2024-02-23T11:33:48;4.60;;;1.00;;
20411;SDS011;10365;52.578;8.138;2024-02-23T11:36:25;4.82;;;1.33;;
20411;SDS011;10365;52.578;8.138;2024-02-23T11:38:56;4.13;;;0.88;;
20411;SDS011;10365;52.578;8.138;2024-02-23T11:41:22;4.93;;;0.80;;
20411;SDS011;10365;52.578;8.138;2024-02-23T11:43:49;4.45;;;0.80;;
20411;SDS011;10365;52.578;8.138;2024-02-23T11:46:18;2.30;;;0.80;;
20411;SDS011;10365;52.578;8.138;2024-02-23T11:48:44;4.30;;;0.70;;
20411;SDS011;10365;52.578;8.138;2024-02-23T11:51:20;2.50;;;0.60;;
20411;SDS011;10365;52.578;8.138;2024-02-23T11:53:49;4.00;;;1.30;;
20411;SDS011;10365;52.578;8.138;2024-02-23T11:56:18;4.68;;;1.20;;
20411;SDS011;10365;52.578;8.138;2024-02-23T11:58:44;3.85;;;0.90;;
20411;SDS011;10365;52.578;8.138;2024-02-23T12:01:12;4.30;;;0.85;;
20411;SDS011;10365;52.578;8.138;2024-02-23T12:03:45;3.78;;;1.02;;
20411;SDS011;10365;52.578;8.138;2024-02-23T12:06:14;2.58;;;0.80;;
20411;SDS011;10365;52.578;8.138;2024-02-23T12:08:40;6.55;;;1.20;;
20411;SDS011;10365;52.578;8.138;2024-02-23T12:11:07;7.40;;;1.10;;
20411;SDS011;10365;52.578;8.138;2024-02-23T12:13:36;2.50;;;0.80;;
20411;SDS011;10365;52.578;8.138;2024-02-23T12:16:02;3.13;;;0.98;;
20411;SDS011;10365;52.578;8.138;2024-02-23T12:18:28;7.43;;;0.90;;
20411;SDS011;10365;52.578;8.138;2024-02-23T12:21:00;3.40;;;0.70;;
20411;SDS011;10365;52.578;8.138;2024-02-23T12:26:15;2.55;;;0.88;;
20411;SDS011;10365;52.578;8.138;2024-02-23T12:28:41;4.60;;;0.85;;
20411;SDS011;10365;52.578;8.138;2024-02-23T12:31:07;2.75;;;0.80;;
20411;SDS011;10365;52.578;8.138;2024-02-23T12:33:36;4.55;;;0.60;;
20411;SDS011;10365;52.578;8.138;2024-02-23T12:36:05;6.57;;;0.90;;
20411;SDS011;10365;52.578;8.138;2024-02-23T12:38:37;3.05;;;0.70;;
20411;SDS011;10365;52.578;8.138;2024-02-23T12:41:02;4.65;;;0.90;;
20411;SDS011;10365;52.578;8.138;2024-02-23T12:43:28;5.20;;;0.77;;
20411;SDS011;10365;52.578;8.138;2024-02-23T12:45:57;1.58;;;0.55;;
20411;SDS011;10365;52.578;8.138;2024-02-23T12:48:23;6.57;;;0.75;;
20411;SDS011;10365;52.578;8.138;2024-02-23T12:50:56;3.00;;;0.57;;
20411;SDS011;10365;52.578;8.138;2024-02-23T12:53:36;3.97;;;0.80;;
20411;SDS011;10365;52.578;8.138;2024-02-23T12:56:03;1.27;;;0.52;;
20411;SDS011;10365;52.578;8.138;2024-02-23T12:58:29;4.03;;;0.68;;
20411;SDS011;10365;52.578;8.138;2024-02-23T13:00:55;2.47;;;0.50;;
20411;SDS011;10365;52.578;8.138;2024-02-23T13:03:21;5.38;;;0.90;;
20411;SDS011;10365;52.578;8.138;2024-02-23T13:05:47;4.95;;;1.27;;
20411;SDS011;10365;52.578;8.138;2024-02-23T13:08:12;4.72;;;0.90;;
20411;SDS011;10365;52.578;8.138;2024-02-23T13:10:38;4.85;;;1.38;;
20411;SDS011;10365;52.578;8.138;2024-02-23T13:13:06;4.65;;;1.08;;
20411;SDS011;10365;52.578;8.138;2024-02-23T13:15:35;2.40;;;0.77;;
20411;SDS011;10365;52.578;8.138;2024-02-23T13:18:03;1.73;;;0.50;;
20411;SDS011;10365;52.578;8.138;2024-02-23T13:20:29;2.35;;;0.88;;
20411;SDS011;10365;52.578;8.138;2024-02-23T13:23:00;4.28;;;1.08;;
20411;SDS011;10365;52.578;8.138;2024-02-23T13:25:28;6.75;;;2.05;;
20411;SDS011;10365;52.578;8.138;2024-02-23T13:27:57;4.18;;;0.60;;
20411;SDS011;10365;52.578;8.138;2024-02-23T13:30:25;1.52;;;0.50;;
20411;SDS011;10365;52.578;8.138;2024-02-23T13:32:51;4.25;;;0.82;;
20411;SDS011;10365;52.578;8.138;2024-02-23T13:35:17;3.28;;;1.23;;
20411;SDS011;10365;52.578;8.138;2024-02-23T13:37:49;1.35;;;0.70;;
20411;SDS011;10365;52.578;8.138;2024-02-23T13:40:55;2.88;;;0.77;;
20411;SDS011;10365;52.578;8.138;2024-02-23T13:43:23;2.33;;;0.63;;
20411;SDS011;10365;52.578;8.138;2024-02-23T13:45:50;4.32;;;0.90;;
20411;SDS011;10365;52.578;8.138;2024-02-23T13:48:21;4.47;;;1.25;;
20411;SDS011;10365;52.578;8.138;2024-02-23T13:50:50;4.75;;;1.30;;
20411;SDS011;10365;52.578;8.138;2024-02-23T13:53:16;1.60;;;0.60;;
20411;SDS011;10365;52.578;8.138;2024-02-23T13:55:41;3.03;;;0.73;;
20411;SDS011;10365;52.578;8.138;2024-02-23T13:58:15;4.32;;;0.73;;
20411;SDS011;10365;52.578;8.138;2024-02-23T14:00:41;3.10;;;0.80;;
20411;SDS011;10365;52.578;8.138;2024-02-23T14:03:11;7.13;;;0.90;;
20411;SDS011;10365;52.578;8.138;2024-02-23T14:05:44;2.30;;;0.75;;
20411;SDS011;10365;52.578;8.138;2024-02-23T14:08:12;3.97;;;0.93;;
20411;SDS011;10365;52.578;8.138;2024-02-23T14:10:37;4.40;;;0.90;;
20411;SDS011;10365;52.578;8.138;2024-02-23T14:13:05;2.72;;;1.05;;
20411;SDS011;10365;52.578;8.138;2024-02-23T14:15:33;2.70;;;1.10;;
20411;SDS011;10365;52.578;8.138;2024-02-23T14:17:59;6.03;;;1.20;;
20411;SDS011;10365;52.578;8.138;2024-02-23T14:20:24;8.50;;;1.17;;
20411;SDS011;10365;52.578;8.138;2024-02-23T14:22:50;2.13;;;0.75;;
20411;SDS011;10365;52.578;8.138;2024-02-23T14:25:20;3.80;;;1.15;;
20411;SDS011;10365;52.578;8.138;2024-02-23T14:27:46;3.80;;;0.85;;
20411;SDS011;10365;52.578;8.138;2024-02-23T14:30:13;3.45;;;0.80;;
20411;SDS011;10365;52.578;8.138;2024-02-23T14:32:41;2.97;;;0.70;;
20411;SDS011;10365;52.578;8.138;2024-02-23T14:35:07;4.35;;;0.90;;
20411;SDS011;10365;52.578;8.138;2024-02-23T14:37:34;1.80;;;0.82;;
20411;SDS011;10365;52.578;8.138;2024-02-23T14:40:01;2.65;;;0.70;;
20411;SDS011;10365;52.578;8.138;2024-02-23T14:42:27;3.28;;;0.70;;
20411;SDS011;10365;52.578;8.138;2024-02-23T14:44:53;4.07;;;0.70;;
20411;SDS011;10365;52.578;8.138;2024-02-23T14:47:26;2.45;;;0.73;;
20411;SDS011;10365;52.578;8.138;2024-02-23T14:49:52;4.20;;;1.05;;
20411;SDS011;10365;52.578;8.138;2024-02-23T14:52:18;6.95;;;1.00;;
20411;SDS011;10365;52.578;8.138;2024-02-23T14:54:46;3.58;;;0.73;;
20411;SDS011;10365;52.578;8.138;2024-02-23T14:57:14;2.70;;;0.70;;
20411;SDS011;10365;52.578;8.138;2024-02-23T14:59:41;4.30;;;1.17;;